sensor_id;sensor_type;location;lat;lon;timestamp;pressure;altitude;pressure_sealevel;temperature;humidity
69411;BME280;56604;48.652;9.194;2022-12-13T00:00:12;95600.25;;;-6.25;85.37
69411;BME280;56604;48.652;9.194;2022-12-13T00:02:43;95603.13;;;-6.28;85.84
69411;BME280;56604;48.652;9.194;2022-12-13T00:05:09;95601.53;;;-6.54;86.51
69411;BME280;56604;48.652;9.194;2022-12-13T00:07:34;95599.28;;;-6.41;86.92
69411;BME280;56604;48.652;9.194;2022-12-13T00:10:00;95588.72;;;-6.29;86.51
69411;BME280;56604;48.652;9.194;2022-12-13T00:12:26;95595.78;;;-6.31;86.70
69411;BME280;56604;48.652;9.194;2022-12-13T00:14:51;95596.09;;;-6.35;86.83
69411;BME280;56604;48.652;9.194;2022-12-13T00:17:17;95594.66;;;-6.45;86.34
69411;BME280;56604;48.652;9.194;2022-12-13T00:19:42;95594.31;;;-6.50;87.15
69411;BME280;56604;48.652;9.194;2022-12-13T00:22:08;95595.28;;;-6.51;87.16
69411;BME280;56604;48.652;9.194;2022-12-13T00:24:33;95587.13;;;-6.47;88.07
69411;BME280;56604;48.652;9.194;2022-12-13T00:26:59;95589.53;;;-6.45;87.16
69411;BME280;56604;48.652;9.194;2022-12-13T00:29:24;95589.84;;;-6.48;87.85
69411;BME280;56604;48.652;9.194;2022-12-13T00:31:50;95587.78;;;-6.45;87.08
69411;BME280;56604;48.652;9.194;2022-12-13T00:34:15;95587.59;;;-6.43;87.80
69411;BME280;56604;48.652;9.194;2022-12-13T00:36:40;95581.69;;;-6.44;87.80
69411;BME280;56604;48.652;9.194;2022-12-13T00:39:06;95588.09;;;-6.40;87.13
69411;BME280;56604;48.652;9.194;2022-12-13T00:41:33;95586.34;;;-6.39;87.49
69411;BME280;56604;48.652;9.194;2022-12-13T00:44:00;95583.31;;;-6.35;87.44
69411;BME280;56604;48.652;9.194;2022-12-13T00:46:26;95576.91;;;-6.47;87.26
69411;BME280;56604;48.652;9.194;2022-12-13T00:48:54;95573.88;;;-6.59;86.94
69411;BME280;56604;48.652;9.194;2022-12-13T00:51:21;95574.97;;;-6.61;87.43
69411;BME280;56604;48.652;9.194;2022-12-13T00:53:47;95565.09;;;-6.64;87.41
69411;BME280;56604;48.652;9.194;2022-12-13T00:56:16;95567.63;;;-6.72;88.18
69411;BME280;56604;48.652;9.194;2022-12-13T00:58:41;95556.47;;;-6.71;87.71
69411;BME280;56604;48.652;9.194;2022-12-13T01:01:09;95555.50;;;-6.70;88.10
69411;BME280;56604;48.652;9.194;2022-12-13T01:03:35;95551.50;;;-6.65;88.04
69411;BME280;56604;48.652;9.194;2022-12-13T01:06:06;95555.19;;;-6.67;88.03
69411;BME280;56604;48.652;9.194;2022-12-13T01:08:32;95551.81;;;-6.68;88.13
69411;BME280;56604;48.652;9.194;2022-12-13T01:10:57;95556.28;;;-6.70;88.20
69411;BME280;56604;48.652;9.194;2022-12-13T01:13:22;95548.31;;;-6.67;88.87
69411;BME280;56604;48.652;9.194;2022-12-13T01:15:48;95550.06;;;-6.75;88.92
69411;BME280;56604;48.652;9.194;2022-12-13T01:18:14;95547.50;;;-6.75;89.20
69411;BME280;56604;48.652;9.194;2022-12-13T01:20:43;95558.50;;;-6.75;89.03
69411;BME280;56604;48.652;9.194;2022-12-13T01:23:08;95550.38;;;-6.87;89.13
69411;BME280;56604;48.652;9.194;2022-12-13T01:25:36;95560.13;;;-6.82;88.97
69411;BME280;56604;48.652;9.194;2022-12-13T01:28:01;95561.22;;;-6.85;89.19
69411;BME280;56604;48.652;9.194;2022-12-13T01:30:27;95555.81;;;-6.73;88.76
69411;BME280;56604;48.652;9.194;2022-12-13T01:32:52;95559.31;;;-6.74;88.41
69411;BME280;56604;48.652;9.194;2022-12-13T01:35:17;95556.75;;;-6.66;88.12
69411;BME280;56604;48.652;9.194;2022-12-13T01:37:43;95549.09;;;-6.58;88.15
69411;BME280;56604;48.652;9.194;2022-12-13T01:40:09;95551.03;;;-6.44;87.39
69411;BME280;56604;48.652;9.194;2022-12-13T01:42:38;95551.84;;;-6.51;87.35
69411;BME280;56604;48.652;9.194;2022-12-13T01:45:12;95546.72;;;-6.51;86.99
69411;BME280;56604;48.652;9.194;2022-12-13T01:47:48;95542.09;;;-6.48;87.79
69411;BME280;56604;48.652;9.194;2022-12-13T01:50:28;95539.53;;;-6.64;87.34
69411;BME280;56604;48.652;9.194;2022-12-13T01:52:56;95532.97;;;-6.75;87.04
69411;BME280;56604;48.652;9.194;2022-12-13T01:55:26;95533.13;;;-6.85;87.91
69411;BME280;56604;48.652;9.194;2022-12-13T01:57:54;95529.94;;;-6.87;88.14
69411;BME280;56604;48.652;9.194;2022-12-13T02:00:21;95530.56;;;-6.85;88.01
69411;BME280;56604;48.652;9.194;2022-12-13T02:02:48;95525.78;;;-6.96;88.69
69411;BME280;56604;48.652;9.194;2022-12-13T02:05:30;95529.91;;;-7.03;88.82
69411;BME280;56604;48.652;9.194;2022-12-13T02:07:58;95527.03;;;-7.08;88.99
69411;BME280;56604;48.652;9.194;2022-12-13T02:10:26;95527.19;;;-7.10;88.85
69411;BME280;56604;48.652;9.194;2022-12-13T02:12:51;95522.88;;;-7.09;89.30
69411;BME280;56604;48.652;9.194;2022-12-13T02:15:17;95520.81;;;-7.06;89.62
69411;BME280;56604;48.652;9.194;2022-12-13T02:18:04;95522.25;;;-7.11;89.79
69411;BME280;56604;48.652;9.194;2022-12-13T02:21:00;95521.31;;;-7.02;90.16
69411;BME280;56604;48.652;9.194;2022-12-13T02:26:46;95519.06;;;-7.05;89.56
69411;BME280;56604;48.652;9.194;2022-12-13T02:32:15;95525.44;;;-7.09;89.93
69411;BME280;56604;48.652;9.194;2022-12-13T02:37:23;95515.38;;;-7.19;89.76
69411;BME280;56604;48.652;9.194;2022-12-13T02:40:02;95517.75;;;-7.17;89.79
69411;BME280;56604;48.652;9.194;2022-12-13T02:42:36;95516.81;;;-7.16;90.70
69411;BME280;56604;48.652;9.194;2022-12-13T02:45:12;95508.84;;;-7.13;90.12
69411;BME280;56604;48.652;9.194;2022-12-13T02:47:40;95515.38;;;-7.19;89.78
69411;BME280;56604;48.652;9.194;2022-12-13T02:50:08;95515.19;;;-7.26;90.05
69411;BME280;56604;48.652;9.194;2022-12-13T02:52:36;95509.44;;;-7.28;89.87
69411;BME280;56604;48.652;9.194;2022-12-13T02:55:07;95509.44;;;-7.28;90.05
69411;BME280;56604;48.652;9.194;2022-12-13T02:57:38;95514.25;;;-7.25;89.78
69411;BME280;56604;48.652;9.194;2022-12-13T03:00:07;95508.84;;;-7.13;89.65
69411;BME280;56604;48.652;9.194;2022-12-13T03:08:23;95487.78;;;-6.99;88.90
69411;BME280;56604;48.652;9.194;2022-12-13T03:11:14;95488.09;;;-7.02;88.51
69411;BME280;56604;48.652;9.194;2022-12-13T03:13:51;95488.75;;;-7.00;88.07
69411;BME280;56604;48.652;9.194;2022-12-13T03:19:18;95486.97;;;-6.99;88.07
69411;BME280;56604;48.652;9.194;2022-12-13T03:21:48;95477.72;;;-7.01;88.04
69411;BME280;56604;48.652;9.194;2022-12-13T03:24:19;95473.72;;;-7.03;87.68
69411;BME280;56604;48.652;9.194;2022-12-13T03:26:46;95472.44;;;-7.07;87.29
69411;BME280;56604;48.652;9.194;2022-12-13T03:29:12;95485.88;;;-7.05;87.59
69411;BME280;56604;48.652;9.194;2022-12-13T03:31:38;95478.34;;;-7.07;87.76
69411;BME280;56604;48.652;9.194;2022-12-13T03:34:03;95483.63;;;-7.08;87.46
69411;BME280;56604;48.652;9.194;2022-12-13T03:36:29;95484.91;;;-7.04;87.25
69411;BME280;56604;48.652;9.194;2022-12-13T03:38:54;95482.03;;;-7.01;87.14
69411;BME280;56604;48.652;9.194;2022-12-13T03:41:25;95481.09;;;-7.00;87.09
69411;BME280;56604;48.652;9.194;2022-12-13T03:44:03;95475.66;;;-7.05;86.57
69411;BME280;56604;48.652;9.194;2022-12-13T03:46:29;95475.34;;;-7.02;87.46
69411;BME280;56604;48.652;9.194;2022-12-13T03:48:55;95473.72;;;-7.03;87.35
69411;BME280;56604;48.652;9.194;2022-12-13T03:51:20;95466.69;;;-7.01;86.51
69411;BME280;56604;48.652;9.194;2022-12-13T03:53:45;95469.56;;;-7.12;86.83
69411;BME280;56604;48.652;9.194;2022-12-13T03:56:11;95469.56;;;-7.12;86.83
69411;BME280;56604;48.652;9.194;2022-12-13T03:58:36;95464.13;;;-7.09;86.66
69411;BME280;56604;48.652;9.194;2022-12-13T04:01:04;95464.78;;;-7.15;87.07
69411;BME280;56604;48.652;9.194;2022-12-13T04:03:30;95452.00;;;-7.15;86.47
69411;BME280;56604;48.652;9.194;2022-12-13T04:05:55;95451.69;;;-7.20;86.87
69411;BME280;56604;48.652;9.194;2022-12-13T04:08:21;95453.28;;;-7.19;86.41
69411;BME280;56604;48.652;9.194;2022-12-13T04:10:46;95455.69;;;-7.18;87.14
69411;BME280;56604;48.652;9.194;2022-12-13T04:13:11;95461.56;;;-7.17;86.75
69411;BME280;56604;48.652;9.194;2022-12-13T04:15:55;95450.41;;;-7.16;86.56
69411;BME280;56604;48.652;9.194;2022-12-13T04:18:20;95450.09;;;-7.21;86.50
69411;BME280;56604;48.652;9.194;2022-12-13T04:20:46;95457.59;;;-7.28;86.29
69411;BME280;56604;48.652;9.194;2022-12-13T04:23:11;95461.09;;;-7.21;86.19
69411;BME280;56604;48.652;9.194;2022-12-13T04:25:38;95463.66;;;-7.21;86.55
69411;BME280;56604;48.652;9.194;2022-12-13T04:28:04;95467.31;;;-7.24;86.32
69411;BME280;56604;48.652;9.194;2022-12-13T04:30:29;95460.78;;;-7.18;85.54
69411;BME280;56604;48.652;9.194;2022-12-13T04:32:54;95461.56;;;-7.17;86.24
69411;BME280;56604;48.652;9.194;2022-12-13T04:35:21;95458.41;;;-7.19;85.47
69411;BME280;56604;48.652;9.194;2022-12-13T04:37:46;95463.19;;;-7.25;85.96
69411;BME280;56604;48.652;9.194;2022-12-13T04:40:11;95466.38;;;-7.31;85.83
69411;BME280;56604;48.652;9.194;2022-12-13T04:42:37;95465.41;;;-7.21;85.45
69411;BME280;56604;48.652;9.194;2022-12-13T04:45:02;95468.59;;;-7.28;86.04
69411;BME280;56604;48.652;9.194;2022-12-13T04:47:28;95468.25;;;-7.33;85.63
69411;BME280;56604;48.652;9.194;2022-12-13T04:49:53;95460.16;;;-7.28;86.07
69411;BME280;56604;48.652;9.194;2022-12-13T04:52:19;95456.94;;;-7.30;86.25
69411;BME280;56604;48.652;9.194;2022-12-13T04:54:44;95458.41;;;-7.19;86.38
69411;BME280;56604;48.652;9.194;2022-12-13T04:57:10;95452.97;;;-7.25;86.16
69411;BME280;56604;48.652;9.194;2022-12-13T04:59:36;95445.94;;;-7.31;86.03
69411;BME280;56604;48.652;9.194;2022-12-13T05:02:03;95450.41;;;-7.25;86.50
69411;BME280;56604;48.652;9.194;2022-12-13T05:04:29;95451.66;;;-7.29;85.66
69411;BME280;56604;48.652;9.194;2022-12-13T05:06:54;95447.38;;;-7.36;86.35
69411;BME280;56604;48.652;9.194;2022-12-13T05:09:21;95447.19;;;-7.35;86.35
69411;BME280;56604;48.652;9.194;2022-12-13T05:11:47;95447.03;;;-7.41;85.49
69411;BME280;56604;48.652;9.194;2022-12-13T05:14:12;95447.22;;;-7.27;85.67
69411;BME280;56604;48.652;9.194;2022-12-13T05:16:37;95442.09;;;-7.27;85.71
69411;BME280;56604;48.652;9.194;2022-12-13T05:19:03;95442.44;;;-7.30;86.06
69411;BME280;56604;48.652;9.194;2022-12-13T05:21:28;95446.88;;;-7.24;85.87
69411;BME280;56604;48.652;9.194;2022-12-13T05:23:53;95447.84;;;-7.25;85.36
69411;BME280;56604;48.652;9.194;2022-12-13T05:26:19;95441.31;;;-7.27;85.19
69411;BME280;56604;48.652;9.194;2022-12-13T05:28:44;95437.97;;;-7.28;85.88
69411;BME280;56604;48.652;9.194;2022-12-13T05:31:11;95439.41;;;-7.25;85.51
69411;BME280;56604;48.652;9.194;2022-12-13T05:33:37;95440.53;;;-7.28;85.75
69411;BME280;56604;48.652;9.194;2022-12-13T05:36:03;95435.41;;;-7.28;85.39
69411;BME280;56604;48.652;9.194;2022-12-13T05:38:29;95433.81;;;-7.29;85.63
69411;BME280;56604;48.652;9.194;2022-12-13T05:40:55;95433.97;;;-7.30;85.54
69411;BME280;56604;48.652;9.194;2022-12-13T05:43:21;95430.63;;;-7.31;84.77
69411;BME280;56604;48.652;9.194;2022-12-13T05:45:48;95433.00;;;-7.29;84.79
69411;BME280;56604;48.652;9.194;2022-12-13T05:48:14;95441.31;;;-7.27;85.44
69411;BME280;56604;48.652;9.194;2022-12-13T05:50:39;95436.06;;;-7.26;84.71
69411;BME280;56604;48.652;9.194;2022-12-13T05:53:05;95435.41;;;-7.28;84.83
69411;BME280;56604;48.652;9.194;2022-12-13T05:55:31;95425.53;;;-7.31;85.08
69411;BME280;56604;48.652;9.194;2022-12-13T05:57:57;95423.91;;;-7.32;84.66
69411;BME280;56604;48.652;9.194;2022-12-13T06:00:23;95422.00;;;-7.30;84.92
69411;BME280;56604;48.652;9.194;2022-12-13T06:02:48;95425.53;;;-7.31;85.51
69411;BME280;56604;48.652;9.194;2022-12-13T06:05:14;95426.31;;;-7.30;84.94
69411;BME280;56604;48.652;9.194;2022-12-13T06:07:40;95421.84;;;-7.28;85.24
69411;BME280;56604;48.652;9.194;2022-12-13T06:10:06;95434.13;;;-7.32;85.90
69411;BME280;56604;48.652;9.194;2022-12-13T06:12:35;95431.09;;;-7.27;85.64
69411;BME280;56604;48.652;9.194;2022-12-13T06:15:00;95426.78;;;-7.27;84.78
69411;BME280;56604;48.652;9.194;2022-12-13T06:17:30;95432.22;;;-7.21;84.99
69411;BME280;56604;48.652;9.194;2022-12-13T06:19:55;95423.91;;;-7.24;85.62
69411;BME280;56604;48.652;9.194;2022-12-13T06:22:21;95422.47;;;-7.26;84.35
69411;BME280;56604;48.652;9.194;2022-12-13T06:24:46;95431.91;;;-7.27;84.62
69411;BME280;56604;48.652;9.194;2022-12-13T06:27:11;95427.09;;;-7.30;84.77
69411;BME280;56604;48.652;9.194;2022-12-13T06:29:37;95428.53;;;-7.35;85.00
69411;BME280;56604;48.652;9.194;2022-12-13T06:32:03;95432.84;;;-7.36;85.22
69411;BME280;56604;48.652;9.194;2022-12-13T06:34:30;95433.16;;;-7.39;85.02
69411;BME280;56604;48.652;9.194;2022-12-13T06:36:56;95428.22;;;-7.32;84.19
69411;BME280;56604;48.652;9.194;2022-12-13T06:39:21;95429.66;;;-7.21;85.26
69411;BME280;56604;48.652;9.194;2022-12-13T06:41:47;95426.00;;;-7.19;84.47
69411;BME280;56604;48.652;9.194;2022-12-13T06:44:12;95425.50;;;-7.14;83.87
69411;BME280;56604;48.652;9.194;2022-12-13T06:46:37;95429.66;;;-7.21;83.41
69411;BME280;56604;48.652;9.194;2022-12-13T06:49:03;95427.13;;;-7.21;83.62
69411;BME280;56604;48.652;9.194;2022-12-13T06:51:29;95429.03;;;-7.24;83.66
69411;BME280;56604;48.652;9.194;2022-12-13T06:53:54;95431.91;;;-7.18;83.56
69411;BME280;56604;48.652;9.194;2022-12-13T06:56:20;95434.31;;;-7.25;83.29
69411;BME280;56604;48.652;9.194;2022-12-13T06:58:46;95435.25;;;-7.18;83.08
69411;BME280;56604;48.652;9.194;2022-12-13T07:01:14;95431.56;;;-7.24;82.99
69411;BME280;56604;48.652;9.194;2022-12-13T07:03:40;95433.66;;;-7.19;83.11
69411;BME280;56604;48.652;9.194;2022-12-13T07:06:18;95435.09;;;-7.25;82.89
69411;BME280;56604;48.652;9.194;2022-12-13T07:08:54;95440.84;;;-7.31;82.84
69411;BME280;56604;48.652;9.194;2022-12-13T07:11:26;95442.59;;;-7.31;83.33
69411;BME280;56604;48.652;9.194;2022-12-13T07:13:52;95440.34;;;-7.34;83.15
69411;BME280;56604;48.652;9.194;2022-12-13T07:16:18;95441.78;;;-7.32;82.69
69411;BME280;56604;48.652;9.194;2022-12-13T07:18:44;95448.00;;;-7.34;82.75
69411;BME280;56604;48.652;9.194;2022-12-13T07:21:11;95449.63;;;-7.25;83.64
69411;BME280;56604;48.652;9.194;2022-12-13T07:23:37;95445.13;;;-7.23;82.97
69411;BME280;56604;48.652;9.194;2022-12-13T07:26:04;95452.00;;;-7.15;82.89
69411;BME280;56604;48.652;9.194;2022-12-13T07:28:34;95454.56;;;-7.07;81.85
69411;BME280;56604;48.652;9.194;2022-12-13T07:31:01;95454.88;;;-7.10;82.12
69411;BME280;56604;48.652;9.194;2022-12-13T07:33:26;95460.81;;;-7.02;82.42
69411;BME280;56604;48.652;9.194;2022-12-13T07:36:09;95460.63;;;-6.92;81.63
69411;BME280;56604;48.652;9.194;2022-12-13T07:38:36;95459.50;;;-6.89;81.45
69411;BME280;56604;48.652;9.194;2022-12-13T07:41:02;95462.84;;;-6.89;81.18
69411;BME280;56604;48.652;9.194;2022-12-13T07:43:28;95460.16;;;-6.87;80.99
69411;BME280;56604;48.652;9.194;2022-12-13T07:45:57;95461.59;;;-6.85;81.33
69411;BME280;56604;48.652;9.194;2022-12-13T07:48:23;95462.72;;;-6.79;81.17
69411;BME280;56604;48.652;9.194;2022-12-13T07:50:48;95462.53;;;-6.78;81.31
69411;BME280;56604;48.652;9.194;2022-12-13T07:53:14;95470.84;;;-6.75;81.58
69411;BME280;56604;48.652;9.194;2022-12-13T07:55:39;95458.72;;;-6.73;81.38
69411;BME280;56604;48.652;9.194;2022-12-13T07:58:10;95474.03;;;-6.57;80.91
69411;BME280;56604;48.652;9.194;2022-12-13T08:00:37;95471.16;;;-6.54;80.58
69411;BME280;56604;48.652;9.194;2022-12-13T08:03:04;95476.28;;;-6.46;80.60
69411;BME280;56604;48.652;9.194;2022-12-13T08:05:30;95481.38;;;-6.46;79.56
69411;BME280;56604;48.652;9.194;2022-12-13T08:07:55;95484.09;;;-6.47;79.77
69411;BME280;56604;48.652;9.194;2022-12-13T08:10:20;95470.50;;;-6.40;80.32
69411;BME280;56604;48.652;9.194;2022-12-13T08:12:46;95471.72;;;-6.19;80.42
69411;BME280;56604;48.652;9.194;2022-12-13T08:15:11;95472.38;;;-6.17;78.95
69411;BME280;56604;48.652;9.194;2022-12-13T08:17:36;95469.16;;;-6.11;78.91
69411;BME280;56604;48.652;9.194;2022-12-13T08:20:03;95481.28;;;-6.05;78.34
69411;BME280;56604;48.652;9.194;2022-12-13T08:22:29;95474.81;;;-5.93;79.04
69411;BME280;56604;48.652;9.194;2022-12-13T08:24:54;95473.19;;;-5.85;77.63
69411;BME280;56604;48.652;9.194;2022-12-13T08:27:20;95473.28;;;-5.71;77.13
69411;BME280;56604;48.652;9.194;2022-12-13T08:29:45;95470.25;;;-5.66;77.73
69411;BME280;56604;48.652;9.194;2022-12-13T08:32:11;95476.41;;;-5.92;78.05
69411;BME280;56604;48.652;9.194;2022-12-13T08:34:37;95480.22;;;-5.88;77.59
69411;BME280;56604;48.652;9.194;2022-12-13T08:37:03;95475.97;;;-5.64;78.07
69411;BME280;56604;48.652;9.194;2022-12-13T08:39:35;95481.78;;;-5.78;76.70
69411;BME280;56604;48.652;9.194;2022-12-13T08:42:11;95483.56;;;-5.79;76.08
69411;BME280;56604;48.652;9.194;2022-12-13T08:44:38;95482.81;;;-5.56;76.92
69411;BME280;56604;48.652;9.194;2022-12-13T08:47:03;95483.50;;;-5.62;76.35
69411;BME280;56604;48.652;9.194;2022-12-13T08:49:28;95486.13;;;-5.48;76.02
69411;BME280;56604;48.652;9.194;2022-12-13T08:51:53;95473.63;;;-5.43;76.09
69411;BME280;56604;48.652;9.194;2022-12-13T08:54:19;95485.91;;;-5.38;76.08
69411;BME280;56604;48.652;9.194;2022-12-13T08:56:44;95480.59;;;-5.28;76.53
69411;BME280;56604;48.652;9.194;2022-12-13T08:59:09;95482.66;;;-5.24;76.30
69411;BME280;56604;48.652;9.194;2022-12-13T09:01:35;95485.03;;;-5.22;75.50
69411;BME280;56604;48.652;9.194;2022-12-13T09:04:00;95486.88;;;-5.39;75.99
69411;BME280;56604;48.652;9.194;2022-12-13T09:06:25;95482.06;;;-5.34;77.00
69411;BME280;56604;48.652;9.194;2022-12-13T09:08:54;95469.31;;;-5.19;76.57
69411;BME280;56604;48.652;9.194;2022-12-13T09:11:19;95465.69;;;-5.02;77.37
69411;BME280;56604;48.652;9.194;2022-12-13T09:13:46;95465.53;;;-5.00;75.62
69411;BME280;56604;48.652;9.194;2022-12-13T09:16:14;95462.50;;;-5.04;75.33
69411;BME280;56604;48.652;9.194;2022-12-13T09:18:41;95459.75;;;-5.02;75.55
69411;BME280;56604;48.652;9.194;2022-12-13T09:21:08;95460.34;;;-4.92;76.12
69411;BME280;56604;48.652;9.194;2022-12-13T09:23:34;95451.63;;;-4.68;75.10
69411;BME280;56604;48.652;9.194;2022-12-13T09:25:59;95465.13;;;-4.89;74.52
69411;BME280;56604;48.652;9.194;2022-12-13T09:28:28;95454.06;;;-4.89;75.42
69411;BME280;56604;48.652;9.194;2022-12-13T09:30:57;95462.81;;;-4.61;75.49
69411;BME280;56604;48.652;9.194;2022-12-13T09:33:23;95470.06;;;-4.87;75.58
69411;BME280;56604;48.652;9.194;2022-12-13T09:35:49;95466.59;;;-4.71;75.72
69411;BME280;56604;48.652;9.194;2022-12-13T09:38:16;95473.09;;;-4.31;75.18
69411;BME280;56604;48.652;9.194;2022-12-13T09:40:43;95471.88;;;-4.05;75.35
69411;BME280;56604;48.652;9.194;2022-12-13T09:43:14;95466.94;;;-3.92;74.21
69411;BME280;56604;48.652;9.194;2022-12-13T09:45:44;95465.31;;;-3.64;73.31
69411;BME280;56604;48.652;9.194;2022-12-13T09:48:15;95473.16;;;-3.50;72.13
69411;BME280;56604;48.652;9.194;2022-12-13T09:50:41;95468.59;;;-3.70;71.88
69411;BME280;56604;48.652;9.194;2022-12-13T09:53:07;95467.81;;;-3.85;71.62
69411;BME280;56604;48.652;9.194;2022-12-13T09:55:42;95468.94;;;-3.58;71.29
69411;BME280;56604;48.652;9.194;2022-12-13T09:58:25;95464.22;;;-3.54;71.50
69411;BME280;56604;48.652;9.194;2022-12-13T10:00:53;95467.19;;;-3.72;71.22
69411;BME280;56604;48.652;9.194;2022-12-13T10:03:21;95464.53;;;-3.94;71.98
69411;BME280;56604;48.652;9.194;2022-12-13T10:05:58;95470.91;;;-3.75;72.22
69411;BME280;56604;48.652;9.194;2022-12-13T10:08:30;95463.81;;;-3.88;72.89
69411;BME280;56604;48.652;9.194;2022-12-13T10:10:57;95459.75;;;-3.82;72.92
69411;BME280;56604;48.652;9.194;2022-12-13T10:16:00;95450.47;;;-3.83;73.13
69411;BME280;56604;48.652;9.194;2022-12-13T10:18:37;95442.78;;;-3.62;72.96
69411;BME280;56604;48.652;9.194;2022-12-13T10:21:07;95441.94;;;-3.69;72.28
69411;BME280;56604;48.652;9.194;2022-12-13T10:23:34;95446.94;;;-3.46;72.84
69411;BME280;56604;48.652;9.194;2022-12-13T10:25:59;95444.31;;;-3.52;72.12
69411;BME280;56604;48.652;9.194;2022-12-13T10:28:28;95440.44;;;-3.27;71.51
69411;BME280;56604;48.652;9.194;2022-12-13T10:30:55;95440.66;;;-3.43;69.60
69411;BME280;56604;48.652;9.194;2022-12-13T10:33:26;95441.00;;;-3.46;70.52
69411;BME280;56604;48.652;9.194;2022-12-13T10:38:29;95429.34;;;-3.27;71.01
69411;BME280;56604;48.652;9.194;2022-12-13T10:40:55;95429.78;;;-3.24;70.83
69411;BME280;56604;48.652;9.194;2022-12-13T10:43:25;95422.31;;;-3.19;70.93
69411;BME280;56604;48.652;9.194;2022-12-13T10:48:21;95425.66;;;-2.97;71.57
69411;BME280;56604;48.652;9.194;2022-12-13T10:51:00;95425.38;;;-2.87;68.87
69411;BME280;56604;48.652;9.194;2022-12-13T10:53:29;95412.63;;;-2.95;66.38
69411;BME280;56604;48.652;9.194;2022-12-13T10:55:55;95419.34;;;-2.94;68.28
69411;BME280;56604;48.652;9.194;2022-12-13T10:58:21;95412.84;;;-2.68;69.43
69411;BME280;56604;48.652;9.194;2022-12-13T11:00:47;95408.81;;;-2.78;68.17
69411;BME280;56604;48.652;9.194;2022-12-13T11:03:31;95405.63;;;-2.80;68.21
69411;BME280;56604;48.652;9.194;2022-12-13T11:08:28;95404.97;;;-2.60;66.59
69411;BME280;56604;48.652;9.194;2022-12-13T11:10:59;95408.81;;;-2.78;67.69
69411;BME280;56604;48.652;9.194;2022-12-13T11:13:33;95413.97;;;-2.78;67.53
69411;BME280;56604;48.652;9.194;2022-12-13T11:16:01;95405.34;;;-2.63;65.94
69411;BME280;56604;48.652;9.194;2022-12-13T11:18:32;95398.47;;;-2.56;67.74
69411;BME280;56604;48.652;9.194;2022-12-13T11:21:02;95405.75;;;-2.66;67.49
69411;BME280;56604;48.652;9.194;2022-12-13T11:23:32;95413.09;;;-2.85;67.44
69411;BME280;56604;48.652;9.194;2022-12-13T11:26:07;95400.84;;;-2.83;69.22
69411;BME280;56604;48.652;9.194;2022-12-13T11:28:48;95406.50;;;-2.73;67.57
69411;BME280;56604;48.652;9.194;2022-12-13T11:31:31;95390.94;;;-2.86;68.87
69411;BME280;56604;48.652;9.194;2022-12-13T11:36:50;95387.75;;;-2.88;67.64
69411;BME280;56604;48.652;9.194;2022-12-13T11:39:31;95374.69;;;-2.93;67.94
69411;BME280;56604;48.652;9.194;2022-12-13T11:42:09;95377.72;;;-2.83;67.59
69411;BME280;56604;48.652;9.194;2022-12-13T11:45:05;95368.34;;;-2.90;68.18
69411;BME280;56604;48.652;9.194;2022-12-13T11:48:08;95369.63;;;-2.80;68.51
69411;BME280;56604;48.652;9.194;2022-12-13T11:50:42;95367.66;;;-2.78;67.34
69411;BME280;56604;48.652;9.194;2022-12-13T11:56:24;95373.75;;;-2.57;68.17
69411;BME280;56604;48.652;9.194;2022-12-13T11:59:23;95372.28;;;-2.38;67.28
69411;BME280;56604;48.652;9.194;2022-12-13T12:02:00;95378.84;;;-2.29;69.10
69411;BME280;56604;48.652;9.194;2022-12-13T12:04:50;95376.69;;;-2.26;64.89
69411;BME280;56604;48.652;9.194;2022-12-13T12:07:19;95376.66;;;-2.32;63.37
69411;BME280;56604;48.652;9.194;2022-12-13T12:09:50;95371.53;;;-2.26;64.38
69411;BME280;56604;48.652;9.194;2022-12-13T12:12:38;95377.69;;;-2.27;64.80
69411;BME280;56604;48.652;9.194;2022-12-13T12:15:15;95377.53;;;-2.18;64.71
69411;BME280;56604;48.652;9.194;2022-12-13T12:17:42;95373.72;;;-2.22;63.99
69411;BME280;56604;48.652;9.194;2022-12-13T12:20:16;95364.66;;;-2.18;65.08
69411;BME280;56604;48.652;9.194;2022-12-13T12:25:44;95359.28;;;-2.23;64.05
69411;BME280;56604;48.652;9.194;2022-12-13T12:28:32;95357.88;;;-2.26;65.19
69411;BME280;56604;48.652;9.194;2022-12-13T12:31:30;95358.50;;;-2.17;64.65
69411;BME280;56604;48.652;9.194;2022-12-13T12:34:51;95366.00;;;-2.22;62.93
69411;BME280;56604;48.652;9.194;2022-12-13T12:39:57;95362.38;;;-2.35;62.81
69411;BME280;56604;48.652;9.194;2022-12-13T12:42:45;95356.88;;;-2.25;62.57
69411;BME280;56604;48.652;9.194;2022-12-13T12:45:36;95347.03;;;-2.15;63.65
69411;BME280;56604;48.652;9.194;2022-12-13T12:48:24;95351.16;;;-2.27;62.15
69411;BME280;56604;48.652;9.194;2022-12-13T12:51:06;95344.19;;;-2.33;61.60
69411;BME280;56604;48.652;9.194;2022-12-13T13:01:56;95341.41;;;-2.32;62.98
69411;BME280;56604;48.652;9.194;2022-12-13T13:04:28;95344.84;;;-2.24;62.69
69411;BME280;56604;48.652;9.194;2022-12-13T13:07:10;95352.34;;;-2.23;62.15
69411;BME280;56604;48.652;9.194;2022-12-13T13:09:36;95341.97;;;-2.36;63.30
69411;BME280;56604;48.652;9.194;2022-12-13T13:12:04;95334.94;;;-2.21;63.99
69411;BME280;56604;48.652;9.194;2022-12-13T13:14:38;95340.28;;;-2.22;62.34
69411;BME280;56604;48.652;9.194;2022-12-13T13:19:48;95339.25;;;-2.28;60.53
69411;BME280;56604;48.652;9.194;2022-12-13T13:22:34;95337.84;;;-2.31;62.87
69411;BME280;56604;48.652;9.194;2022-12-13T13:27:43;95333.53;;;-2.23;60.29
69411;BME280;56604;48.652;9.194;2022-12-13T13:32:45;95332.72;;;-2.31;61.17
69411;BME280;56604;48.652;9.194;2022-12-13T13:37:55;95325.56;;;-2.35;59.58
69411;BME280;56604;48.652;9.194;2022-12-13T13:40:30;95325.66;;;-2.22;61.07
69411;BME280;56604;48.652;9.194;2022-12-13T13:45:55;95330.13;;;-2.31;59.83
69411;BME280;56604;48.652;9.194;2022-12-13T13:51:39;95321.06;;;-2.27;59.10
69411;BME280;56604;48.652;9.194;2022-12-13T14:11:16;95330.34;;;-2.26;58.84
69411;BME280;56604;48.652;9.194;2022-12-13T14:22:08;95342.22;;;-2.31;60.69
69411;BME280;56604;48.652;9.194;2022-12-13T14:27:30;95333.47;;;-2.37;60.86
69411;BME280;56604;48.652;9.194;2022-12-13T14:29:59;95331.06;;;-2.45;61.68
69411;BME280;56604;48.652;9.194;2022-12-13T14:34:51;95335.00;;;-2.49;61.90
69411;BME280;56604;48.652;9.194;2022-12-13T14:37:28;95344.88;;;-2.53;61.81
69411;BME280;56604;48.652;9.194;2022-12-13T14:39:55;95343.28;;;-2.54;61.69
69411;BME280;56604;48.652;9.194;2022-12-13T14:42:29;95343.66;;;-2.57;62.43
69411;BME280;56604;48.652;9.194;2022-12-13T14:45:24;95346.56;;;-2.66;62.86